Weather at Adolf Würth Airport

Public forecast

Using degrees Celsius for public forecast. Weather courtesy of forecast.io.

Current aviation weather report (METAR) for Adolf Würth Airport

Retrieved 2020/09/23 11:20 UTC (35 minutes ago):

EDTY 231120Z 28008KT 9999 FEW033 20/11 Q1009

Closest aviation forecast (TAF) to Adolf Würth Airport

Forecast is more than 12 hours old.

Closest forecast is Niederstetten Army Air Base, 17.8 nm (33.0 km) NNE. Retrieved 2014/02/20 12:36 UTC (7 years ago):

TAF TAF ETHN 201100Z 2012/2024 21008KT 9999 NSW SCT020